createdAt,value
2022-09-17T00:01:31.227Z,99534.88
2022-09-17T00:04:03.550Z,99539.91
2022-09-17T00:06:34.410Z,99542.25
2022-09-17T00:09:02.408Z,99539.34
2022-09-17T00:11:33.773Z,99541.81
2022-09-17T00:14:04.351Z,99536.84
2022-09-17T00:16:41.510Z,99542.16
2022-09-17T00:19:17.837Z,99538.75
2022-09-17T00:21:44.829Z,99540.66
2022-09-17T00:24:14.856Z,99549.06
2022-09-17T00:26:43.036Z,99552.69
2022-09-17T00:29:11.159Z,99551.94
2022-09-17T00:31:38.035Z,99545.97
2022-09-17T00:34:06.643Z,99555.19
2022-09-17T00:36:39.129Z,99552.97
2022-09-17T00:39:10.862Z,99553.41
2022-09-17T00:41:39.373Z,99552.19
2022-09-17T00:44:52.945Z,99557.88
2022-09-17T00:47:35.158Z,99553.78
2022-09-17T00:50:12.521Z,99556.91
2022-09-17T00:52:59.805Z,99558.41
2022-09-17T00:55:42.549Z,99550.94
2022-09-17T00:58:15.357Z,99555.13
2022-09-17T01:00:43.407Z,99554.94
2022-09-17T01:03:10.073Z,99553.91
2022-09-17T01:05:50.277Z,99559.78
2022-09-17T01:08:57.653Z,99557.09
2022-09-17T01:11:38.356Z,99548.97
2022-09-17T01:14:55.852Z,99556.69
2022-09-17T01:17:55.112Z,99557.34
2022-09-17T01:21:02.399Z,99560.31
2022-09-17T01:23:56.474Z,99556.59
2022-09-17T01:26:51.183Z,99555.53
2022-09-17T01:30:06.990Z,99559.94
2022-09-17T01:33:03.209Z,99559.09
2022-09-17T01:36:14.232Z,99556.41
2022-09-17T01:39:04.758Z,99552.47
2022-09-17T01:41:54.054Z,99560.41
2022-09-17T01:44:35.708Z,99562.25
2022-09-17T01:47:21.288Z,99558.72
2022-09-17T01:49:56.199Z,99566.63
2022-09-17T01:52:28.881Z,99564.13
2022-09-17T01:55:05.962Z,99567.47
2022-09-17T01:57:41.539Z,99565.81
2022-09-17T02:00:14.716Z,99559.53
2022-09-17T02:03:08.427Z,99564.94
2022-09-17T02:05:56.661Z,99564.78
2022-09-17T02:08:56.348Z,99557.69
2022-09-17T02:11:23.770Z,99568.31
2022-09-17T02:13:58.738Z,99573.53
2022-09-17T02:16:33.172Z,99568.13
2022-09-17T02:19:25.342Z,99565.41
2022-09-17T02:22:07.448Z,99557.31
2022-09-17T02:24:57.494Z,99561.66
2022-09-17T02:28:04.729Z,99567.94
2022-09-17T02:30:32.529Z,99564.78
2022-09-17T02:33:06.755Z,99564.50
2022-09-17T02:35:33.408Z,99561.53
2022-09-17T02:38:01.266Z,99565.84
2022-09-17T02:40:36.314Z,99559.13
2022-09-17T02:43:41.998Z,99563.06
2022-09-17T02:46:48.483Z,99565.50
2022-09-17T02:50:23.025Z,99555.25
2022-09-17T02:53:32.876Z,99568.13
2022-09-17T02:56:20.424Z,99561.69
2022-09-17T02:59:16.829Z,99568.78
2022-09-17T03:02:09.004Z,99563.53
2022-09-17T03:04:39.731Z,99553.56
2022-09-17T03:07:11.997Z,99558.13
2022-09-17T03:09:39.286Z,99553.97
2022-09-17T03:12:06.510Z,99546.94
2022-09-17T03:14:33.259Z,99557.09
2022-09-17T03:16:59.892Z,99554.41
2022-09-17T03:19:27.895Z,99551.44
2022-09-17T03:21:54.789Z,99552.47
2022-09-17T03:24:21.644Z,99552.66
2022-09-17T03:26:49.272Z,99554.72
2022-09-17T03:29:16.971Z,99553.22
2022-09-17T03:31:44.057Z,99553.03
2022-09-17T03:34:10.938Z,99552.19
2022-09-17T03:36:37.587Z,99551.81
2022-09-17T03:39:04.477Z,99556.00
2022-09-17T03:41:31.396Z,99560.38
2022-09-17T03:43:58.127Z,99548.91
2022-09-17T03:46:24.961Z,99549.94
2022-09-17T03:48:51.602Z,99554.13
2022-09-17T03:51:18.373Z,99550.34
2022-09-17T03:53:45.026Z,99546.13
2022-09-17T03:56:11.687Z,99546.13
2022-09-17T03:58:38.927Z,99546.50
2022-09-17T04:01:05.690Z,99548.56
2022-09-17T04:03:33.630Z,99550.44
2022-09-17T04:06:00.261Z,99548.78
2022-09-17T04:08:27.142Z,99557.88
2022-09-17T04:10:54.058Z,99563.69
2022-09-17T04:13:21.614Z,99555.56
2022-09-17T04:15:49.057Z,99556.78
2022-09-17T04:18:16.365Z,99565.50
2022-09-17T04:20:43.664Z,99565.72
2022-09-17T04:23:13.899Z,99568.34
2022-09-17T04:25:40.876Z,99559.75
2022-09-17T04:28:08.370Z,99568.50
2022-09-17T04:30:35.217Z,99567.84
2022-09-17T04:33:02.180Z,99568.63
2022-09-17T04:35:29.247Z,99568.81
2022-09-17T04:37:59.852Z,99568.63
2022-09-17T04:40:28.008Z,99581.81
2022-09-17T04:43:02.905Z,99575.66
2022-09-17T04:45:33.389Z,99578.94
2022-09-17T04:48:00.554Z,99575.56
2022-09-17T04:50:27.739Z,99573.63
2022-09-17T04:52:54.528Z,99577.06
2022-09-17T04:55:21.559Z,99573.59
2022-09-17T04:57:54.541Z,99574.88
2022-09-17T05:00:24.157Z,99576.47
2022-09-17T05:02:55.191Z,99574.38
2022-09-17T05:05:25.915Z,99577.78
2022-09-17T05:07:53.066Z,99579.16
2022-09-17T05:10:23.534Z,99576.81
2022-09-17T05:12:57.108Z,99580.41
2022-09-17T05:15:26.051Z,99578.06
2022-09-17T05:17:52.923Z,99569.34
2022-09-17T05:20:20.409Z,99569.69
2022-09-17T05:22:51.611Z,99581.00
2022-09-17T05:25:26.246Z,99580.34
2022-09-17T05:27:54.776Z,99587.97
2022-09-17T05:30:22.309Z,99594.19
2022-09-17T05:32:49.537Z,99585.56
2022-09-17T05:35:16.964Z,99592.94
2022-09-17T05:37:43.744Z,99587.34
2022-09-17T05:40:10.737Z,99581.63
2022-09-17T05:42:37.676Z,99595.75
2022-09-17T05:45:05.615Z,99597.91
2022-09-17T05:47:32.863Z,99595.69
2022-09-17T05:49:59.652Z,99601.75
2022-09-17T05:52:30.058Z,99600.75
2022-09-17T05:54:57.180Z,99605.75
2022-09-17T05:57:24.677Z,99606.28
2022-09-17T05:59:51.592Z,99605.41
2022-09-17T06:02:18.567Z,99602.56
2022-09-17T06:04:46.256Z,99609.28
2022-09-17T06:07:13.499Z,99616.53
2022-09-17T06:09:43.737Z,99609.72
2022-09-17T06:12:11.235Z,99613.94
2022-09-17T06:14:38.308Z,99614.56
2022-09-17T06:17:05.143Z,99617.94
2022-09-17T06:19:31.915Z,99624.31
2022-09-17T06:21:58.656Z,99624.75
2022-09-17T06:24:26.076Z,99618.66
2022-09-17T06:26:55.831Z,99624.72
2022-09-17T06:32:03.715Z,99626.47
2022-09-17T06:34:30.392Z,99628.44
2022-09-17T06:36:57.017Z,99625.59
2022-09-17T06:39:24.381Z,99629.78
2022-09-17T06:41:53.545Z,99637.66
2022-09-17T06:44:20.211Z,99636.66
2022-09-17T06:46:51.206Z,99638.31
2022-09-17T06:49:19.221Z,99637.50
2022-09-17T06:51:46.073Z,99631.91
2022-09-17T06:54:15.406Z,99629.44
2022-09-17T06:56:42.082Z,99634.66
2022-09-17T06:59:08.914Z,99633.50
2022-09-17T07:01:35.669Z,99632.22
2022-09-17T07:04:03.214Z,99633.63
2022-09-17T07:06:29.976Z,99639.03
2022-09-17T07:09:10.856Z,99634.16
2022-09-17T07:11:39.701Z,99634.75
2022-09-17T07:14:07.022Z,99636.69
2022-09-17T07:16:35.957Z,99633.31
2022-09-17T07:19:09.008Z,99636.47
2022-09-17T07:21:35.916Z,99640.06
2022-09-17T07:24:03.718Z,99634.53
2022-09-17T07:26:35.291Z,99627.47
2022-09-17T07:29:02.088Z,99630.94
2022-09-17T07:31:28.867Z,99638.94
2022-09-17T07:33:59.298Z,99636.53
2022-09-17T07:36:26.819Z,99638.91
2022-09-17T07:38:53.939Z,99640.69
2022-09-17T07:41:27.554Z,99634.09
2022-09-17T07:44:00.706Z,99639.41
2022-09-17T07:46:27.684Z,99641.72
2022-09-17T07:51:40.676Z,99640.72
2022-09-17T07:54:08.028Z,99639.94
2022-09-17T07:56:34.788Z,99641.75
2022-09-17T07:59:04.157Z,99642.38
2022-09-17T08:01:36.633Z,99645.06
2022-09-17T08:04:04.829Z,99634.44
2022-09-17T08:06:36.017Z,99636.91
2022-09-17T08:09:04.510Z,99644.56
2022-09-17T08:14:23.567Z,99642.47
2022-09-17T08:16:52.599Z,99639.09
2022-09-17T08:19:19.970Z,99643.13
2022-09-17T08:21:47.582Z,99634.94
2022-09-17T08:24:14.394Z,99621.94
2022-09-17T08:26:41.505Z,99624.53
2022-09-17T08:29:08.234Z,99622.53
2022-09-17T08:34:16.876Z,99619.78
2022-09-17T08:36:44.076Z,99617.31
2022-09-17T08:39:12.224Z,99623.97
2022-09-17T08:42:21.172Z,99621.75
2022-09-17T08:47:39.079Z,99621.41
2022-09-17T08:50:16.603Z,99623.28
2022-09-17T08:56:19.540Z,99622.91
2022-09-17T08:59:21.648Z,99617.69
2022-09-17T09:05:37.345Z,99625.00
2022-09-17T09:08:43.900Z,99626.22
2022-09-17T09:11:27.737Z,99622.81
2022-09-17T09:16:58.613Z,99633.84
2022-09-17T09:22:53.160Z,99633.44
2022-09-17T09:25:37.886Z,99641.00
2022-09-17T09:34:55.029Z,99641.13
2022-09-17T09:37:35.118Z,99637.31
2022-09-17T09:40:33.798Z,99639.09
2022-09-17T09:43:16.145Z,99644.13
2022-09-17T09:46:24.727Z,99640.34
2022-09-17T09:49:00.675Z,99640.44
2022-09-17T09:51:52.332Z,99639.59
2022-09-17T09:54:56.566Z,99644.75
2022-09-17T09:57:47.595Z,99652.25
2022-09-17T10:00:40.016Z,99648.53
2022-09-17T10:03:26.359Z,99648.06
2022-09-17T10:06:06.458Z,99632.56
2022-09-17T10:08:42.621Z,99642.16
2022-09-17T10:11:11.999Z,99638.16
2022-09-17T10:13:39.836Z,99643.69
2022-09-17T10:16:27.693Z,99642.28
2022-09-17T10:19:06.568Z,99641.75
2022-09-17T10:21:35.691Z,99645.31
2022-09-17T10:24:22.090Z,99633.44
2022-09-17T10:26:50.142Z,99642.50
2022-09-17T10:29:21.281Z,99637.38
2022-09-17T10:31:55.729Z,99642.97
2022-09-17T10:34:31.260Z,99634.81
2022-09-17T10:36:58.525Z,99629.88
2022-09-17T10:39:44.394Z,99633.13
2022-09-17T10:42:18.950Z,99626.69
2022-09-17T10:44:56.974Z,99627.97
2022-09-17T10:47:41.023Z,99620.84
2022-09-17T10:59:51.443Z,99641.06
2022-09-17T11:02:56.604Z,99634.75
2022-09-17T11:05:38.842Z,99629.28
2022-09-17T11:08:57.388Z,99621.19
2022-09-17T11:11:30.017Z,99614.47
2022-09-17T11:14:35.898Z,99613.03
2022-09-17T11:17:41.368Z,99617.94
2022-09-17T11:20:59.927Z,99617.16
2022-09-17T11:24:20.334Z,99633.47
2022-09-17T11:27:18.541Z,99623.16
2022-09-17T11:30:22.031Z,99628.63
2022-09-17T11:33:28.687Z,99633.25
2022-09-17T11:36:13.379Z,99637.81
2022-09-17T11:38:52.833Z,99644.13
2022-09-17T11:41:41.075Z,99656.44
2022-09-17T11:44:14.674Z,99645.66
2022-09-17T11:47:07.541Z,99658.06
2022-09-17T11:49:50.427Z,99650.00
2022-09-17T11:52:26.095Z,99649.72
2022-09-17T11:55:34.863Z,99653.34
2022-09-17T11:58:21.404Z,99662.97
2022-09-17T12:01:04.275Z,99666.88
2022-09-17T12:03:53.301Z,99670.69
2022-09-17T12:06:40.244Z,99669.31
2022-09-17T12:09:22.140Z,99665.75
2022-09-17T12:12:31.887Z,99669.19
2022-09-17T12:15:22.759Z,99669.31
2022-09-17T12:21:09.619Z,99648.81
2022-09-17T12:23:54.241Z,99658.97
2022-09-17T12:26:59.037Z,99658.41
2022-09-17T12:30:05.201Z,99652.81
2022-09-17T12:32:39.557Z,99650.56
2022-09-17T12:36:02.604Z,99652.50
2022-09-17T12:39:31.224Z,99654.09
2022-09-17T12:42:31.709Z,99653.16
2022-09-17T12:45:31.343Z,99655.28
2022-09-17T12:49:08.044Z,99653.44
2022-09-17T12:51:58.566Z,99655.09
2022-09-17T12:55:01.987Z,99656.84
2022-09-17T12:58:06.662Z,99662.31
2022-09-17T13:00:52.694Z,99668.28
2022-09-17T13:04:06.082Z,99671.69
2022-09-17T13:07:16.047Z,99667.78
2022-09-17T13:10:19.601Z,99666.69
2022-09-17T13:13:29.354Z,99675.47
2022-09-17T13:16:59.153Z,99678.50
2022-09-17T13:19:42.452Z,99682.75
2022-09-17T13:22:23.535Z,99685.41
2022-09-17T13:25:11.692Z,99684.00
2022-09-17T13:27:40.827Z,99688.94
2022-09-17T13:30:11.082Z,99684.78
2022-09-17T13:32:39.627Z,99699.03
2022-09-17T13:35:12.118Z,99687.47
2022-09-17T13:37:53.660Z,99686.09
2022-09-17T13:40:28.441Z,99684.53
2022-09-17T13:43:08.267Z,99689.38
2022-09-17T13:46:00.512Z,99685.09
2022-09-17T13:48:32.474Z,99690.19
2022-09-17T13:51:34.045Z,99689.63
2022-09-17T13:54:10.824Z,99693.28
2022-09-17T13:56:48.404Z,99695.00
2022-09-17T13:59:27.149Z,99696.88
2022-09-17T14:02:18.698Z,99691.94
2022-09-17T14:04:49.132Z,99698.53
2022-09-17T14:07:21.714Z,99694.69
2022-09-17T14:10:02.185Z,99695.38
2022-09-17T14:12:41.233Z,99696.44
2022-09-17T14:15:43.444Z,99705.03
2022-09-17T14:18:28.638Z,99702.66
2022-09-17T14:21:30.942Z,99710.31
2022-09-17T14:24:29.877Z,99710.09
2022-09-17T14:27:34.061Z,99706.97
2022-09-17T14:30:20.462Z,99707.66
2022-09-17T14:32:59.131Z,99700.44
2022-09-17T14:35:57.444Z,99710.31
2022-09-17T14:38:46.628Z,99708.44
2022-09-17T14:41:13.965Z,99695.00
2022-09-17T14:44:15.421Z,99684.47
2022-09-17T14:47:13.267Z,99689.34
2022-09-17T14:49:40.972Z,99696.47
2022-09-17T14:52:32.628Z,99704.03
2022-09-17T14:55:33.143Z,99711.34
2022-09-17T14:58:04.881Z,99717.22
2022-09-17T15:00:38.629Z,99723.16
2022-09-17T15:03:06.755Z,99725.75
2022-09-17T15:05:43.337Z,99736.00
2022-09-17T15:08:09.847Z,99752.28
2022-09-17T15:11:00.081Z,99777.59
2022-09-17T15:13:38.354Z,99788.94
2022-09-17T15:16:33.636Z,99797.06
2022-09-17T15:19:04.221Z,99801.94
2022-09-17T15:21:43.048Z,99800.59
2022-09-17T15:24:54.274Z,99798.19
2022-09-17T15:27:42.105Z,99792.38
2022-09-17T15:30:16.124Z,99784.00
2022-09-17T15:32:51.705Z,99795.31
2022-09-17T15:35:35.368Z,99795.31
2022-09-17T15:38:29.253Z,99792.28
2022-09-17T15:41:31.821Z,99797.34
2022-09-17T15:44:31.879Z,99803.25
2022-09-17T15:47:48.215Z,99802.06
2022-09-17T15:50:28.952Z,99803.91
2022-09-17T15:53:20.522Z,99803.41
2022-09-17T15:56:13.164Z,99803.56
2022-09-17T15:58:42.840Z,99803.72
2022-09-17T16:01:15.514Z,99805.53
2022-09-17T16:03:43.351Z,99802.34
2022-09-17T16:06:19.410Z,99800.50
2022-09-17T16:09:01.090Z,99805.56
2022-09-17T16:11:34.339Z,99807.28
2022-09-17T16:14:01.819Z,99808.97
2022-09-17T16:16:37.896Z,99802.22
2022-09-17T16:19:09.347Z,99808.13
2022-09-17T16:21:36.086Z,99798.53
2022-09-17T16:24:02.750Z,99805.78
2022-09-17T16:26:35.122Z,99803.75
2022-09-17T16:29:16.688Z,99807.28
2022-09-17T16:31:45.771Z,99800.72
2022-09-17T16:34:12.402Z,99810.66
2022-09-17T16:36:39.419Z,99811.50
2022-09-17T16:39:06.089Z,99809.63
2022-09-17T16:41:32.850Z,99819.56
2022-09-17T16:43:59.611Z,99813.69
2022-09-17T16:46:26.560Z,99815.22
2022-09-17T16:48:53.369Z,99813.69
2022-09-17T16:51:20.118Z,99812.00
2022-09-17T16:53:47.057Z,99815.22
2022-09-17T16:56:16.030Z,99809.81
2022-09-17T16:58:43.132Z,99809.00
2022-09-17T17:01:14.568Z,99798.03
2022-09-17T17:03:42.846Z,99790.63
2022-09-17T17:06:21.682Z,99792.13
2022-09-17T17:08:49.502Z,99790.78
2022-09-17T17:11:16.149Z,99794.66
2022-09-17T17:13:46.802Z,99795.00
2022-09-17T17:16:15.408Z,99788.41
2022-09-17T17:18:46.431Z,99790.44
2022-09-17T17:21:14.614Z,99800.50
2022-09-17T17:23:47.081Z,99789.56
2022-09-17T17:26:16.662Z,99788.06
2022-09-17T17:28:44.116Z,99788.72
2022-09-17T17:31:11.702Z,99790.41
2022-09-17T17:33:38.784Z,99788.72
2022-09-17T17:36:08.162Z,99803.72
2022-09-17T17:38:36.926Z,99800.81
2022-09-17T17:41:11.849Z,99809.25
2022-09-17T17:43:40.176Z,99816.00
2022-09-17T17:46:10.266Z,99824.56
2022-09-17T17:48:38.205Z,99835.00
2022-09-17T17:51:10.609Z,99850.50
2022-09-17T17:53:42.614Z,99862.63
2022-09-17T17:56:11.851Z,99869.22
2022-09-17T17:58:40.581Z,99868.19
2022-09-17T18:01:24.809Z,99873.94
2022-09-17T18:04:03.776Z,99870.06
2022-09-17T18:06:30.941Z,99874.44
2022-09-17T18:08:58.215Z,99873.09
2022-09-17T18:11:25.880Z,99865.00
2022-09-17T18:14:01.977Z,99866.38
2022-09-17T18:16:29.968Z,99863.16
2022-09-17T18:19:00.984Z,99857.63
2022-09-17T18:21:27.900Z,99850.72
2022-09-17T18:23:59.101Z,99856.78
2022-09-17T18:26:43.314Z,99858.78
2022-09-17T18:29:11.730Z,99858.97
2022-09-17T18:31:38.859Z,99864.03
2022-09-17T18:34:14.245Z,99866.53
2022-09-17T18:36:42.492Z,99866.88
2022-09-17T18:42:01.614Z,99878.00
2022-09-17T18:44:28.383Z,99869.41
2022-09-17T18:46:55.059Z,99878.31
2022-09-17T18:49:21.950Z,99880.19
2022-09-17T18:51:48.804Z,99894.50
2022-09-17T18:54:15.573Z,99892.78
2022-09-17T18:56:42.465Z,99900.88
2022-09-17T18:59:10.744Z,99896.50
2022-09-17T19:01:37.762Z,99897.53
2022-09-17T19:04:07.622Z,99898.19
2022-09-17T19:06:34.852Z,99894.97
2022-09-17T19:09:04.971Z,99884.72
2022-09-17T19:11:32.070Z,99896.53
2022-09-17T19:13:58.948Z,99892.47
2022-09-17T19:16:25.890Z,99889.59
2022-09-17T19:18:55.799Z,99895.16
2022-09-17T19:21:23.728Z,99911.50
2022-09-17T19:23:52.497Z,99895.31
2022-09-17T19:26:24.583Z,99896.53
2022-09-17T19:28:58.696Z,99884.38
2022-09-17T19:31:27.279Z,99889.94
2022-09-17T19:33:55.374Z,99890.97
2022-09-17T19:36:22.277Z,99886.41
2022-09-17T19:38:49.622Z,99891.47
2022-09-17T19:41:22.928Z,99884.22
2022-09-17T19:43:53.252Z,99894.66
2022-09-17T19:46:25.263Z,99893.81
2022-09-17T19:48:57.031Z,99896.16
2022-09-17T19:51:31.780Z,99900.88
2022-09-17T19:53:58.583Z,99895.16
2022-09-17T19:56:27.812Z,99905.44
2022-09-17T19:58:55.130Z,99897.50
2022-09-17T20:01:22.152Z,99904.91
2022-09-17T20:03:48.958Z,99905.28
2022-09-17T20:06:20.842Z,99901.06
2022-09-17T20:08:51.917Z,99900.38
2022-09-17T20:11:23.177Z,99911.84
2022-09-17T20:13:51.058Z,99903.75
2022-09-17T20:16:21.653Z,99900.56
2022-09-17T20:18:53.198Z,99905.94
2022-09-17T20:21:28.715Z,99902.56
2022-09-17T20:23:57.536Z,99905.28
2022-09-17T20:26:26.076Z,99897.19
2022-09-17T20:28:56.346Z,99906.94
2022-09-17T20:31:30.386Z,99901.56
2022-09-17T20:34:01.884Z,99904.91
2022-09-17T20:36:33.762Z,99894.16
2022-09-17T20:39:21.907Z,99901.91
2022-09-17T20:41:47.441Z,99905.25
2022-09-17T20:44:17.825Z,99899.69
2022-09-17T20:46:44.763Z,99900.38
2022-09-17T20:49:11.517Z,99910.81
2022-09-17T20:51:38.458Z,99908.78
2022-09-17T20:54:06.528Z,99914.19
2022-09-17T20:56:35.254Z,99913.34
2022-09-17T20:59:20.483Z,99909.81
2022-09-17T21:01:49.841Z,99900.88
2022-09-17T21:04:22.029Z,99907.28
2022-09-17T21:06:53.988Z,99894.31
2022-09-17T21:09:20.751Z,99904.25
2022-09-17T21:11:49.179Z,99907.31
2022-09-17T21:14:20.495Z,99898.03
2022-09-17T21:16:47.276Z,99907.44
2022-09-17T21:19:16.486Z,99914.69
2022-09-17T21:21:44.480Z,99909.13
2022-09-17T21:24:11.272Z,99916.22
2022-09-17T21:26:37.956Z,99915.19
2022-09-17T21:29:05.269Z,99923.09
2022-09-17T21:31:36.926Z,99922.94
2022-09-17T21:34:09.683Z,99920.38
2022-09-17T21:36:40.073Z,99925.56
2022-09-17T21:39:15.037Z,99924.22
2022-09-17T21:41:47.980Z,99924.06
2022-09-17T21:44:15.852Z,99924.53
2022-09-17T21:46:43.403Z,99920.34
2022-09-17T21:49:13.005Z,99926.19
2022-09-17T21:51:42.738Z,99923.47
2022-09-17T21:54:16.809Z,99918.59
2022-09-17T21:56:46.897Z,99917.75
2022-09-17T21:59:16.570Z,99925.00
2022-09-17T22:01:48.103Z,99925.69
2022-09-17T22:04:20.571Z,99915.25
2022-09-17T22:06:50.079Z,99917.41
2022-09-17T22:09:23.731Z,99915.25
2022-09-17T22:11:52.687Z,99924.47
2022-09-17T22:14:24.125Z,99921.09
2022-09-17T22:16:57.111Z,99919.44
2022-09-17T22:19:25.856Z,99922.94
2022-09-17T22:21:56.007Z,99923.44
2022-09-17T22:24:25.038Z,99922.75
2022-09-17T22:26:57.913Z,99920.06
2022-09-17T22:29:30.163Z,99915.03
2022-09-17T22:31:57.379Z,99917.19
2022-09-17T22:34:25.226Z,99915.34
2022-09-17T22:36:51.982Z,99911.13
2022-09-17T22:39:22.060Z,99907.59
2022-09-17T22:41:50.108Z,99918.69
2022-09-17T22:44:20.562Z,99917.16
2022-09-17T22:46:51.206Z,99915.31
2022-09-17T22:49:19.470Z,99911.78
2022-09-17T22:51:47.228Z,99912.63
2022-09-17T22:54:18.443Z,99915.34
2022-09-17T22:56:49.037Z,99902.06
2022-09-17T22:59:18.083Z,99906.25
2022-09-17T23:01:45.070Z,99899.38
2022-09-17T23:04:12.175Z,99895.66
2022-09-17T23:06:44.049Z,99894.97
2022-09-17T23:09:13.964Z,99890.63
2022-09-17T23:11:41.593Z,99901.53
2022-09-17T23:14:13.124Z,99894.63
2022-09-17T23:16:46.189Z,99897.84
2022-09-17T23:19:16.825Z,99895.16
2022-09-17T23:21:45.230Z,99890.75
2022-09-17T23:24:21.690Z,99880.38
2022-09-17T23:26:49.942Z,99885.91
2022-09-17T23:29:20.844Z,99879.88
2022-09-17T23:31:47.685Z,99873.81
2022-09-17T23:34:14.532Z,99877.50
2022-09-17T23:36:41.396Z,99883.53
2022-09-17T23:39:11.878Z,99887.25
2022-09-17T23:41:46.150Z,99874.13
2022-09-17T23:44:15.580Z,99876.63
2022-09-17T23:46:44.701Z,99874.28
2022-09-17T23:49:14.253Z,99879.66
2022-09-17T23:51:41.834Z,99877.31
2022-09-17T23:54:09.165Z,99871.53
2022-09-17T23:56:35.949Z,99867.19
2022-09-17T23:59:03.123Z,99881.47
